createdAt,value
2023-05-11T00:01:23.924Z,98299.59
2023-05-11T00:03:50.635Z,98293.03
2023-05-11T00:06:17.217Z,98289.53
2023-05-11T00:08:43.670Z,98291.22
2023-05-11T00:11:10.170Z,98292.25
2023-05-11T00:13:36.693Z,98285.66
2023-05-11T00:16:03.994Z,98289.81
2023-05-11T00:18:30.979Z,98292.44
2023-05-11T00:20:57.664Z,98289.34
2023-05-11T00:23:24.411Z,98286.34
2023-05-11T00:25:50.988Z,98287.09
2023-05-11T00:28:17.470Z,98281.41
2023-05-11T00:30:45.291Z,98282.19
2023-05-11T00:33:11.754Z,98279.66
2023-05-11T00:35:38.193Z,98280.22
2023-05-11T00:38:04.792Z,98273.13
2023-05-11T00:40:32.259Z,98278.84
2023-05-11T00:42:58.816Z,98267.44
2023-05-11T00:45:25.991Z,98268.25
2023-05-11T00:47:52.763Z,98270.78
2023-05-11T00:50:19.621Z,98266.97
2023-05-11T00:52:47.501Z,98270.72
2023-05-11T00:55:14.818Z,98260.03
2023-05-11T00:57:41.563Z,98274.13
2023-05-11T01:00:08.716Z,98281.53
2023-05-11T01:02:35.524Z,98275.59
2023-05-11T01:05:02.300Z,98282.09
2023-05-11T01:07:37.042Z,98283.09
2023-05-11T01:10:14.725Z,98280.91
2023-05-11T01:13:02.778Z,98288.97
2023-05-11T01:15:53.185Z,98292.50
2023-05-11T01:18:32.163Z,98288.53
2023-05-11T01:21:06.869Z,98284.53
2023-05-11T01:24:08.928Z,98286.78
2023-05-11T01:27:06.804Z,98287.09
2023-05-11T01:30:04.710Z,98288.59
2023-05-11T01:32:35.840Z,98291.59
2023-05-11T01:35:07.910Z,98292.63
2023-05-11T01:37:36.427Z,98287.63
2023-05-11T01:40:12.820Z,98293.31
2023-05-11T01:42:43.564Z,98290.84
2023-05-11T01:45:12.611Z,98286.06
2023-05-11T01:47:41.303Z,98286.34
2023-05-11T01:50:09.405Z,98287.25
2023-05-11T01:52:39.746Z,98280.66
2023-05-11T01:55:08.053Z,98282.69
2023-05-11T01:57:38.075Z,98287.41
2023-05-11T02:00:05.715Z,98289.28
2023-05-11T02:02:40.927Z,98290.28
2023-05-11T02:05:09.158Z,98280.34
2023-05-11T02:07:38.129Z,98287.84
2023-05-11T02:10:05.318Z,98292.19
2023-05-11T02:12:35.381Z,98288.84
2023-05-11T02:15:03.679Z,98289.88
2023-05-11T02:17:32.269Z,98289.56
2023-05-11T02:20:02.274Z,98286.81
2023-05-11T02:22:32.149Z,98286.56
2023-05-11T02:24:58.795Z,98286.91
2023-05-11T02:27:25.502Z,98286.91
2023-05-11T02:29:52.546Z,98286.91
2023-05-11T02:32:22.576Z,98280.66
2023-05-11T02:35:12.849Z,98284.78
2023-05-11T02:37:44.853Z,98279.09
2023-05-11T02:40:21.010Z,98282.97
2023-05-11T02:42:53.616Z,98285.47
2023-05-11T02:45:20.491Z,98285.75
2023-05-11T02:47:56.069Z,98281.06
2023-05-11T02:50:30.135Z,98281.75
2023-05-11T02:53:01.464Z,98289.81
2023-05-11T02:55:29.145Z,98284.47
2023-05-11T02:57:56.072Z,98288.25
2023-05-11T03:00:23.217Z,98285.94
2023-05-11T03:02:50.347Z,98288.00
2023-05-11T03:05:20.507Z,98289.44
2023-05-11T03:07:47.588Z,98289.59
2023-05-11T03:10:14.479Z,98285.06
2023-05-11T03:12:44.434Z,98295.78
2023-05-11T03:15:12.511Z,98280.47
2023-05-11T03:17:42.192Z,98282.91
2023-05-11T03:20:12.257Z,98284.53
2023-05-11T03:22:39.733Z,98286.00
2023-05-11T03:25:07.751Z,98290.13
2023-05-11T03:27:36.277Z,98284.13
2023-05-11T03:30:08.200Z,98282.09
2023-05-11T03:32:39.208Z,98276.84
2023-05-11T03:35:07.008Z,98283.13
2023-05-11T03:37:36.173Z,98284.25
2023-05-11T03:40:03.877Z,98285.06
2023-05-11T03:42:38.710Z,98283.47
2023-05-11T03:45:08.063Z,98279.69
2023-05-11T03:47:36.307Z,98278.44
2023-05-11T03:50:03.730Z,98285.25
2023-05-11T03:52:30.736Z,98281.88
2023-05-11T03:54:57.247Z,98278.44
2023-05-11T03:57:27.396Z,98272.00
2023-05-11T03:59:53.918Z,98277.72
2023-05-11T04:02:20.705Z,98275.31
2023-05-11T04:04:47.333Z,98278.84
2023-05-11T04:07:13.810Z,98274.28
2023-05-11T04:09:40.950Z,98282.72
2023-05-11T04:12:07.410Z,98271.31
2023-05-11T04:14:33.868Z,98280.09
2023-05-11T04:17:00.457Z,98280.09
2023-05-11T04:19:27.426Z,98278.28
2023-05-11T04:21:54.789Z,98279.13
2023-05-11T04:24:21.244Z,98275.88
2023-05-11T04:26:47.760Z,98272.66
2023-05-11T04:29:14.266Z,98282.59
2023-05-11T04:31:40.872Z,98283.84
2023-05-11T04:34:08.356Z,98284.50
2023-05-11T04:36:36.001Z,98285.50
2023-05-11T04:39:04.374Z,98283.91
2023-05-11T04:41:31.000Z,98289.84
2023-05-11T04:43:59.456Z,98293.06
2023-05-11T04:46:26.012Z,98300.44
2023-05-11T04:48:52.515Z,98300.75
2023-05-11T04:51:19.016Z,98294.09
2023-05-11T04:53:45.583Z,98294.66
2023-05-11T04:56:12.603Z,98298.38
2023-05-11T04:58:39.115Z,98304.47
2023-05-11T05:01:05.673Z,98306.16
2023-05-11T05:03:32.193Z,98298.50
2023-05-11T05:05:58.659Z,98301.91
2023-05-11T05:08:25.107Z,98306.41
2023-05-11T05:10:51.807Z,98311.09
2023-05-11T05:13:18.346Z,98306.19
2023-05-11T05:15:44.924Z,98308.28
2023-05-11T05:18:11.885Z,98308.94
2023-05-11T05:20:39.560Z,98311.38
2023-05-11T05:23:06.187Z,98311.59
2023-05-11T05:25:33.845Z,98315.47
2023-05-11T05:28:00.695Z,98309.03
2023-05-11T05:30:27.676Z,98311.41
2023-05-11T05:32:54.939Z,98316.47
2023-05-11T05:35:21.633Z,98320.34
2023-05-11T05:37:48.338Z,98324.63
2023-05-11T05:40:15.258Z,98320.41
2023-05-11T05:42:46.418Z,98323.41
2023-05-11T05:45:16.633Z,98325.63
2023-05-11T05:47:43.152Z,98322.59
2023-05-11T05:50:10.150Z,98318.72
2023-05-11T05:52:37.206Z,98327.41
2023-05-11T05:55:03.921Z,98321.78
2023-05-11T05:57:30.770Z,98325.34
2023-05-11T05:59:57.631Z,98326.97
2023-05-11T06:02:24.236Z,98329.84
2023-05-11T06:04:50.982Z,98332.25
2023-05-11T06:07:17.606Z,98327.41
2023-05-11T06:09:44.066Z,98329.66
2023-05-11T06:12:10.554Z,98329.94
2023-05-11T06:14:41.859Z,98327.31
2023-05-11T06:17:08.656Z,98329.13
2023-05-11T06:19:35.239Z,98337.84
2023-05-11T06:22:03.171Z,98342.69
2023-05-11T06:24:33.143Z,98326.34
2023-05-11T06:26:59.646Z,98343.28
2023-05-11T06:29:26.266Z,98338.88
2023-05-11T06:31:54.318Z,98338.06
2023-05-11T06:34:22.088Z,98341.38
2023-05-11T06:36:48.905Z,98343.75
2023-05-11T06:39:15.747Z,98338.13
2023-05-11T06:41:42.912Z,98339.38
2023-05-11T06:44:09.810Z,98338.78
2023-05-11T06:46:38.684Z,98339.19
2023-05-11T06:49:05.212Z,98336.19
2023-05-11T06:51:32.129Z,98335.16
2023-05-11T06:53:58.591Z,98336.19
2023-05-11T06:56:25.151Z,98329.06
2023-05-11T06:58:51.615Z,98334.19
2023-05-11T07:01:18.122Z,98332.97
2023-05-11T07:03:44.630Z,98328.69
2023-05-11T07:06:11.080Z,98327.22
2023-05-11T07:08:37.706Z,98326.88
2023-05-11T07:11:04.287Z,98326.84
2023-05-11T07:13:30.858Z,98337.22
2023-05-11T07:15:57.866Z,98336.22
2023-05-11T07:18:24.692Z,98336.69
2023-05-11T07:20:51.227Z,98332.81
2023-05-11T07:23:17.686Z,98331.59
2023-05-11T07:25:44.156Z,98322.44
2023-05-11T07:28:10.741Z,98327.31
2023-05-11T07:30:37.284Z,98337.09
2023-05-11T07:33:03.996Z,98329.13
2023-05-11T07:35:30.830Z,98337.28
2023-05-11T07:37:57.285Z,98340.97
2023-05-11T07:40:23.792Z,98334.22
2023-05-11T07:42:50.326Z,98330.16
2023-05-11T07:45:16.841Z,98326.03
2023-05-11T07:47:43.327Z,98327.66
2023-05-11T07:50:10.064Z,98328.25
2023-05-11T07:52:36.524Z,98331.84
2023-05-11T07:55:03.067Z,98325.13
2023-05-11T07:57:29.547Z,98325.44
2023-05-11T07:59:55.992Z,98329.88
2023-05-11T08:02:22.573Z,98324.25
2023-05-11T08:04:49.502Z,98326.78
2023-05-11T08:07:15.984Z,98324.97
2023-05-11T08:09:42.755Z,98327.69
2023-05-11T08:12:09.528Z,98321.88
2023-05-11T08:14:36.132Z,98324.78
2023-05-11T08:17:02.588Z,98316.69
2023-05-11T08:19:29.052Z,98317.13
2023-05-11T08:21:55.504Z,98322.78
2023-05-11T08:24:21.981Z,98324.75
2023-05-11T08:26:48.506Z,98323.28
2023-05-11T08:29:14.958Z,98319.66
2023-05-11T08:31:41.546Z,98322.13
2023-05-11T08:34:18.178Z,98321.50
2023-05-11T08:36:47.020Z,98320.81
2023-05-11T08:39:13.685Z,98329.81
2023-05-11T08:41:40.169Z,98325.53
2023-05-11T08:44:07.682Z,98326.66
2023-05-11T08:46:36.909Z,98322.75
2023-05-11T08:49:03.431Z,98320.84
2023-05-11T08:51:30.124Z,98323.78
2023-05-11T08:53:58.650Z,98328.28
2023-05-11T08:56:26.275Z,98330.28
2023-05-11T08:58:56.156Z,98330.22
2023-05-11T09:01:23.848Z,98321.56
2023-05-11T09:03:51.665Z,98320.84
2023-05-11T09:06:18.587Z,98324.19
2023-05-11T09:08:46.146Z,98329.56
2023-05-11T09:11:13.419Z,98327.94
2023-05-11T09:13:40.060Z,98328.50
2023-05-11T09:16:13.837Z,98331.88
2023-05-11T09:18:51.265Z,98336.06
2023-05-11T09:21:18.625Z,98330.88
2023-05-11T09:23:45.282Z,98326.13
2023-05-11T09:26:20.804Z,98330.22
2023-05-11T09:29:02.504Z,98330.53
2023-05-11T09:31:39.501Z,98334.75
2023-05-11T09:34:13.861Z,98329.31
2023-05-11T09:36:41.804Z,98329.91
2023-05-11T09:41:41.394Z,98328.28
2023-05-11T09:44:12.678Z,98329.69
2023-05-11T09:46:44.259Z,98328.06
2023-05-11T09:49:11.908Z,98324.81
2023-05-11T09:51:40.612Z,98319.00
2023-05-11T09:54:18.937Z,98313.16
2023-05-11T09:56:58.290Z,98322.16
2023-05-11T09:59:38.486Z,98316.47
2023-05-11T10:02:24.780Z,98315.38
2023-05-11T10:04:53.053Z,98317.94
2023-05-11T10:07:30.482Z,98325.16
2023-05-11T10:10:01.427Z,98318.72
2023-05-11T10:12:30.401Z,98319.88
2023-05-11T10:15:05.976Z,98319.13
2023-05-11T10:17:33.136Z,98309.38
2023-05-11T10:20:01.059Z,98306.69
2023-05-11T10:22:30.238Z,98307.69
2023-05-11T10:24:57.852Z,98305.75
2023-05-11T10:27:25.405Z,98305.19
2023-05-11T10:29:52.047Z,98305.13
2023-05-11T10:32:20.607Z,98299.81
2023-05-11T10:34:48.536Z,98301.38
2023-05-11T10:37:16.172Z,98297.81
2023-05-11T10:39:45.294Z,98295.31
2023-05-11T10:42:12.983Z,98294.72
2023-05-11T10:45:24.083Z,98292.94
2023-05-11T10:48:28.056Z,98281.19
2023-05-11T10:51:01.715Z,98285.94
2023-05-11T10:53:49.086Z,98287.66
2023-05-11T10:56:37.423Z,98288.00
2023-05-11T10:59:27.008Z,98285.47
2023-05-11T11:01:57.884Z,98288.50
2023-05-11T11:04:25.000Z,98284.63
2023-05-11T11:07:05.940Z,98279.72
2023-05-11T11:09:53.130Z,98288.28
2023-05-11T11:12:21.458Z,98283.94
2023-05-11T11:15:02.785Z,98278.13
2023-05-11T11:17:32.105Z,98275.72
2023-05-11T11:20:01.299Z,98284.06
2023-05-11T11:22:41.515Z,98279.34
2023-05-11T11:25:09.644Z,98277.13
2023-05-11T11:27:57.081Z,98275.19
2023-05-11T11:30:28.970Z,98264.97
2023-05-11T11:33:07.891Z,98265.41
2023-05-11T11:35:43.583Z,98272.53
2023-05-11T11:38:12.407Z,98269.97
2023-05-11T11:40:50.510Z,98267.31
2023-05-11T11:43:27.503Z,98264.28
2023-05-11T11:45:55.593Z,98264.06
2023-05-11T11:48:42.410Z,98263.63
2023-05-11T11:51:11.502Z,98257.16
2023-05-11T11:53:38.207Z,98261.25
2023-05-11T11:56:07.393Z,98255.41
2023-05-11T11:58:46.149Z,98248.06
2023-05-11T12:01:14.314Z,98251.06
2023-05-11T12:03:43.344Z,98246.53
2023-05-11T12:06:11.387Z,98246.91
2023-05-11T12:08:39.350Z,98243.69
2023-05-11T12:11:07.308Z,98241.75
2023-05-11T12:13:35.308Z,98243.56
2023-05-11T12:16:16.159Z,98240.47
2023-05-11T12:18:55.284Z,98233.00
2023-05-11T12:21:24.355Z,98231.31
2023-05-11T12:23:54.810Z,98231.06
2023-05-11T12:26:23.470Z,98237.06
2023-05-11T12:28:51.413Z,98235.94
2023-05-11T12:31:19.087Z,98233.28
2023-05-11T12:33:50.237Z,98229.78
2023-05-11T12:36:18.337Z,98221.47
2023-05-11T12:38:46.262Z,98225.00
2023-05-11T12:41:19.537Z,98219.53
2023-05-11T12:43:46.200Z,98219.72
2023-05-11T12:46:13.365Z,98226.94
2023-05-11T12:48:40.515Z,98213.66
2023-05-11T12:51:07.043Z,98217.50
2023-05-11T12:53:36.999Z,98213.47
2023-05-11T12:56:04.612Z,98209.50
2023-05-11T12:58:39.294Z,98201.91
2023-05-11T13:01:08.320Z,98210.63
2023-05-11T13:03:38.388Z,98198.81
2023-05-11T13:06:10.592Z,98204.88
2023-05-11T13:08:45.790Z,98195.75
2023-05-11T13:11:28.522Z,98195.59
2023-05-11T13:13:56.984Z,98196.56
2023-05-11T13:16:33.701Z,98191.66
2023-05-11T13:19:02.641Z,98190.63
2023-05-11T13:21:29.858Z,98182.41
2023-05-11T13:23:56.612Z,98189.38
2023-05-11T13:26:24.668Z,98193.19
2023-05-11T13:29:05.848Z,98190.19
2023-05-11T13:31:45.658Z,98191.06
2023-05-11T13:34:12.158Z,98191.75
2023-05-11T13:36:39.501Z,98197.00
2023-05-11T13:39:06.727Z,98199.06
2023-05-11T13:41:33.522Z,98199.88
2023-05-11T13:44:00.280Z,98208.41
2023-05-11T13:46:26.955Z,98205.72
2023-05-11T13:48:54.737Z,98203.94
2023-05-11T13:51:22.033Z,98205.81
2023-05-11T13:53:48.808Z,98209.06
2023-05-11T13:56:16.508Z,98205.44
2023-05-11T13:58:43.001Z,98206.47
2023-05-11T14:01:09.558Z,98205.69
2023-05-11T14:03:36.216Z,98203.44
2023-05-11T14:06:03.034Z,98209.09
2023-05-11T14:08:29.565Z,98204.72
2023-05-11T14:10:56.052Z,98210.03
2023-05-11T14:13:22.839Z,98211.06
2023-05-11T14:15:49.504Z,98205.09
2023-05-11T14:18:16.083Z,98207.13
2023-05-11T14:20:42.769Z,98203.34
2023-05-11T14:23:09.380Z,98211.28
2023-05-11T14:25:36.444Z,98212.53
2023-05-11T14:28:03.031Z,98199.50
2023-05-11T14:30:29.476Z,98207.66
2023-05-11T14:32:56.281Z,98202.03
2023-05-11T14:35:22.864Z,98200.50
2023-05-11T14:37:49.425Z,98206.91
2023-05-11T14:40:16.590Z,98203.97
2023-05-11T14:42:43.070Z,98205.81
2023-05-11T14:45:10.075Z,98204.72
2023-05-11T14:47:36.779Z,98197.28
2023-05-11T14:50:03.494Z,98193.84
2023-05-11T14:52:30.095Z,98195.31
2023-05-11T14:54:56.524Z,98193.13
2023-05-11T14:57:22.988Z,98194.34
2023-05-11T14:59:59.053Z,98194.66
2023-05-11T15:02:26.547Z,98192.03
2023-05-11T15:04:53.072Z,98191.19
2023-05-11T15:07:19.536Z,98187.50
2023-05-11T15:09:46.020Z,98197.59
2023-05-11T15:12:12.471Z,98198.06
2023-05-11T15:14:38.917Z,98194.09
2023-05-11T15:17:05.548Z,98190.03
2023-05-11T15:19:32.113Z,98199.59
2023-05-11T15:21:58.679Z,98194.66
2023-05-11T15:24:25.178Z,98198.19
2023-05-11T15:26:51.646Z,98205.31
2023-05-11T15:29:18.146Z,98202.31
2023-05-11T15:31:44.654Z,98205.84
2023-05-11T15:34:11.266Z,98199.59
2023-05-11T15:36:37.784Z,98201.28
2023-05-11T15:39:04.439Z,98205.84
2023-05-11T15:41:30.932Z,98205.97
2023-05-11T15:43:57.451Z,98204.13
2023-05-11T15:46:23.998Z,98207.75
2023-05-11T15:48:50.563Z,98202.59
2023-05-11T15:51:17.195Z,98199.72
2023-05-11T15:53:43.652Z,98201.75
2023-05-11T15:56:10.157Z,98204.44
2023-05-11T15:58:36.811Z,98199.31
2023-05-11T16:01:03.321Z,98207.31
2023-05-11T16:03:29.888Z,98196.19
2023-05-11T16:05:56.394Z,98200.41
2023-05-11T16:08:22.876Z,98200.56
2023-05-11T16:10:49.390Z,98199.38
2023-05-11T16:13:15.913Z,98193.34
2023-05-11T16:15:42.490Z,98200.31
2023-05-11T16:18:09.004Z,98193.09
2023-05-11T16:20:35.600Z,98195.38
2023-05-11T16:23:02.054Z,98196.66
2023-05-11T16:25:29.068Z,98193.47
2023-05-11T16:27:55.706Z,98193.63
2023-05-11T16:30:25.527Z,98190.47
2023-05-11T16:32:53.103Z,98192.59
2023-05-11T16:35:20.144Z,98191.34
2023-05-11T16:37:47.831Z,98189.19
2023-05-11T16:40:14.601Z,98190.84
2023-05-11T16:42:41.055Z,98193.78
2023-05-11T16:45:07.984Z,98196.13
2023-05-11T16:47:34.656Z,98190.19
2023-05-11T16:50:01.158Z,98185.66
2023-05-11T16:52:27.673Z,98188.47
2023-05-11T16:54:54.281Z,98196.72
2023-05-11T16:57:21.542Z,98187.72
2023-05-11T16:59:48.339Z,98185.41
2023-05-11T17:02:14.890Z,98180.03
2023-05-11T17:04:41.452Z,98179.22
2023-05-11T17:07:10.811Z,98183.28
2023-05-11T17:09:37.292Z,98184.59
2023-05-11T17:12:12.844Z,98184.47
2023-05-11T17:14:39.353Z,98183.28
2023-05-11T17:17:07.464Z,98187.78
2023-05-11T17:19:34.546Z,98187.72
2023-05-11T17:22:01.059Z,98191.03
2023-05-11T17:24:28.724Z,98184.47
2023-05-11T17:26:55.503Z,98196.81
2023-05-11T17:29:22.332Z,98186.69
2023-05-11T17:31:51.200Z,98194.28
2023-05-11T17:34:18.609Z,98197.63
2023-05-11T17:36:45.217Z,98196.09
2023-05-11T17:39:12.100Z,98198.19
2023-05-11T17:41:38.791Z,98205.47
2023-05-11T17:44:05.655Z,98203.28
2023-05-11T17:46:32.340Z,98205.16
2023-05-11T17:48:58.980Z,98204.03
2023-05-11T17:51:25.605Z,98206.94
2023-05-11T17:53:52.038Z,98203.50
2023-05-11T17:56:19.148Z,98212.13
2023-05-11T17:58:45.748Z,98212.81
2023-05-11T18:01:16.539Z,98213.06
2023-05-11T18:03:43.281Z,98209.41
2023-05-11T18:06:10.084Z,98215.34
2023-05-11T18:08:36.673Z,98216.84
2023-05-11T18:11:03.402Z,98225.19
2023-05-11T18:13:30.969Z,98221.75
2023-05-11T18:15:58.528Z,98221.34
2023-05-11T18:18:25.465Z,98219.59
2023-05-11T18:20:52.036Z,98220.56
2023-05-11T18:23:18.576Z,98220.53
2023-05-11T18:25:45.031Z,98228.09
2023-05-11T18:28:11.518Z,98227.72
2023-05-11T18:30:38.357Z,98232.03
2023-05-11T18:33:04.886Z,98233.47
2023-05-11T18:35:31.438Z,98230.00
2023-05-11T18:37:59.472Z,98224.31
2023-05-11T18:40:26.172Z,98233.25
2023-05-11T18:42:53.691Z,98236.91
2023-05-11T18:45:20.192Z,98235.88
2023-05-11T18:47:46.970Z,98235.53
2023-05-11T18:50:13.581Z,98231.44
2023-05-11T18:52:40.083Z,98228.81
2023-05-11T18:55:07.343Z,98243.88
2023-05-11T18:57:34.371Z,98235.34
2023-05-11T19:00:01.072Z,98241.44
2023-05-11T19:02:27.733Z,98236.56
2023-05-11T19:04:54.342Z,98239.78
2023-05-11T19:07:20.792Z,98246.53
2023-05-11T19:09:47.390Z,98245.72
2023-05-11T19:12:13.881Z,98250.81
2023-05-11T19:14:40.443Z,98251.22
2023-05-11T19:17:07.005Z,98254.63
2023-05-11T19:19:34.208Z,98256.25
2023-05-11T19:22:00.867Z,98257.50
2023-05-11T19:24:28.202Z,98258.88
2023-05-11T19:27:05.976Z,98266.81
2023-05-11T19:29:34.837Z,98262.63
2023-05-11T19:32:01.528Z,98270.09
2023-05-11T19:34:28.148Z,98264.00
2023-05-11T19:36:54.620Z,98261.00
2023-05-11T19:39:21.133Z,98270.94
2023-05-11T19:41:47.661Z,98278.03
2023-05-11T19:44:14.169Z,98274.56
2023-05-11T19:46:46.238Z,98269.06
2023-05-11T19:49:16.223Z,98276.81
2023-05-11T19:51:43.363Z,98277.63
2023-05-11T19:54:10.883Z,98280.09
2023-05-11T19:56:37.528Z,98283.94
2023-05-11T19:59:04.654Z,98273.59
2023-05-11T20:01:31.343Z,98282.97
2023-05-11T20:03:58.038Z,98291.28
2023-05-11T20:06:25.576Z,98287.25
2023-05-11T20:08:52.782Z,98285.66
2023-05-11T20:11:19.621Z,98281.78
2023-05-11T20:13:46.787Z,98291.72
2023-05-11T20:16:13.741Z,98293.16
2023-05-11T20:18:40.370Z,98295.41
2023-05-11T20:21:06.968Z,98292.78
2023-05-11T20:23:35.180Z,98292.16
2023-05-11T20:26:03.043Z,98295.81
2023-05-11T20:28:29.564Z,98293.00
2023-05-11T20:30:59.034Z,98288.31
2023-05-11T20:35:55.048Z,98294.00
2023-05-11T20:38:22.169Z,98291.97
2023-05-11T20:40:48.642Z,98286.28
2023-05-11T20:43:15.197Z,98286.44
2023-05-11T20:45:42.161Z,98286.25
2023-05-11T20:48:09.026Z,98282.97
2023-05-11T20:50:35.652Z,98284.59
2023-05-11T20:53:02.227Z,98282.38
2023-05-11T20:55:28.878Z,98282.38
2023-05-11T20:57:55.492Z,98292.94
2023-05-11T21:00:22.552Z,98287.25
2023-05-11T21:02:49.786Z,98282.34
2023-05-11T21:05:16.428Z,98289.28
2023-05-11T21:07:42.896Z,98287.25
2023-05-11T21:10:11.982Z,98288.06
2023-05-11T21:12:38.521Z,98282.34
2023-05-11T21:15:06.864Z,98282.34
2023-05-11T21:17:33.724Z,98275.66
2023-05-11T21:20:00.420Z,98278.09
2023-05-11T21:22:27.127Z,98275.06
2023-05-11T21:24:53.773Z,98274.06
2023-05-11T21:27:20.320Z,98275.47
2023-05-11T21:29:48.092Z,98275.03
2023-05-11T21:32:14.631Z,98271.97
2023-05-11T21:34:41.114Z,98274.44
2023-05-11T21:37:07.996Z,98278.09
2023-05-11T21:39:34.627Z,98275.06
2023-05-11T21:42:02.684Z,98268.97
2023-05-11T21:44:29.150Z,98279.72
2023-05-11T21:46:55.688Z,98277.06
2023-05-11T21:49:22.386Z,98274.88
2023-05-11T21:51:49.259Z,98269.56
2023-05-11T21:54:16.097Z,98273.63
2023-05-11T21:56:42.614Z,98269.53
2023-05-11T21:59:09.134Z,98272.16
2023-05-11T22:01:35.631Z,98274.41
2023-05-11T22:04:02.573Z,98278.50
2023-05-11T22:06:29.146Z,98277.09
2023-05-11T22:08:55.843Z,98280.34
2023-05-11T22:11:22.633Z,98273.41
2023-05-11T22:13:49.218Z,98275.47
2023-05-11T22:16:15.717Z,98272.41
2023-05-11T22:18:42.227Z,98269.59
2023-05-11T22:21:08.685Z,98268.75
2023-05-11T22:23:35.445Z,98270.75
2023-05-11T22:26:03.524Z,98265.06
2023-05-11T22:28:30.193Z,98271.75
2023-05-11T22:31:00.027Z,98263.84
2023-05-11T22:33:26.913Z,98264.69
2023-05-11T22:35:53.380Z,98262.81
2023-05-11T22:38:19.904Z,98265.28
2023-05-11T22:40:46.391Z,98267.50
2023-05-11T22:43:12.910Z,98263.63
2023-05-11T22:45:39.420Z,98271.97
2023-05-11T22:48:06.652Z,98269.94
2023-05-11T22:50:33.197Z,98266.72
2023-05-11T22:52:59.645Z,98261.22
2023-05-11T22:55:26.132Z,98267.75
2023-05-11T22:57:52.581Z,98268.75
2023-05-11T23:00:19.627Z,98261.84
2023-05-11T23:02:47.164Z,98261.84
2023-05-11T23:05:13.727Z,98258.78
2023-05-11T23:07:40.271Z,98256.53
2023-05-11T23:10:07.491Z,98262.44
2023-05-11T23:12:34.239Z,98253.06
2023-05-11T23:15:00.951Z,98258.38
2023-05-11T23:17:27.672Z,98257.38
2023-05-11T23:19:54.212Z,98263.47
2023-05-11T23:22:20.719Z,98252.88
2023-05-11T23:24:47.328Z,98251.25
2023-05-11T23:27:14.089Z,98258.56
2023-05-11T23:29:40.834Z,98256.31
2023-05-11T23:32:07.397Z,98254.13
2023-05-11T23:34:33.930Z,98255.34
2023-05-11T23:37:00.413Z,98249.63
2023-05-11T23:39:26.868Z,98249.84
2023-05-11T23:41:53.361Z,98250.84
2023-05-11T23:44:20.206Z,98250.63
2023-05-11T23:46:46.801Z,98244.56
2023-05-11T23:49:13.447Z,98242.31
2023-05-11T23:51:39.896Z,98236.66
2023-05-11T23:54:06.843Z,98242.34
2023-05-11T23:56:33.401Z,98245.38
2023-05-11T23:58:59.856Z,98238.09
